Weather History for Columbia / Mount Pleasant, TN

Change the Weather History Date:

Sunday, March 23, 2014

  Actual Average (KBNA) Record (KBNA)
Temperature  
Mean Temperature 45 °F 52 °F  
Max Temperature 53 °F 63 °F 87 °F (1935)
Min Temperature 37 °F 41 °F 16 °F (1968)
Degree Days  
Heating Degree Days 20 13  
Month to date heating degree days 377  
Since 1 July heating degree days 3315  
Cooling Degree Days 0 0  
Month to date cooling degree days 0  
Year to date cooling degree days 0  
Moisture  
Dew Point 36 °F    
Average Humidity 71    
Maximum Humidity 100    
Minimum Humidity 44    
Precipitation  
Precipitation 0.00 in 0.14 in 1.37 in (1954)
Month to date precipitation 3.03  
Year to date precipitation 10.72  
Snow  
Snow 0.00 in 0.00 in 0.30 in (1968)
Month to date snowfall 0.7  
Since 1 July snowfall 6.1  
Snow Depth -    
Sea Level Pressure  
Sea Level Pressure 30.19 in    
Wind  
Wind Speed 8 mph (North)    
Max Wind Speed 15 mph    
Max Gust Speed -    
Visibility 9 miles    
Events      
T = Trace of Precipitation, MM = Missing Value Source: NWS Daily Summary

Daily Weather History Graph

Daily Weather History Graph

Search for Another Location

Airport:

Trip Planner

Search our weather history database for the weather conditions in past years. The results will help you decide how hot, cold, wet, or windy it might be!

Date:

Astronomy

Mar. 23, 2014 Rise Set
Actual Time 6:48 AM CDT 7:02 PM CDT
Civil Twilight 6:22 AM CDT 7:28 PM CDT
Nautical Twilight 5:52 AM CDT 7:58 PM CDT
Astronomical Twilight 5:22 AM CDT 8:28 PM CDT
Moon 1:09 AM CDT (3/23) 11:38 AM CDT (3/23)
Length of Visible Light 13h 05m
Length of Day
12h 14m
Waning Gibbous, 54% of the Moon is Illuminated
Mar 23
Waning Gibbous
Mar 23
Last Quarter
Mar 30
New
Apr 7
First Quarter
Apr 15
Full

Hourly Weather History & Observations

Time (CDT) Temp. Windchill Dew Point Humidity Pressure Visibility Wind Dir Wind Speed Gust Speed Precip Events Conditions
12:35 AM 51.8 °F - 37.4 °F 58% 30.08 in 10.0 mi North 11.5 mph - N/A   Overcast
12:55 AM 51.8 °F - 37.4 °F 58% 30.10 in 10.0 mi North 9.2 mph - N/A   Overcast
1:15 AM 46.4 °F 42.4 °F 39.2 °F 76% 30.14 in 5.0 mi NNW 8.1 mph - N/A   Overcast
1:35 AM 44.6 °F 40.2 °F 41.0 °F 87% 30.13 in 6.0 mi North 8.1 mph - N/A   Overcast
1:55 AM 44.6 °F 42.2 °F 41.0 °F 87% 30.15 in 9.0 mi Variable 4.6 mph - N/A   Overcast
2:15 AM 44.6 °F 42.2 °F 42.8 °F 93% 30.12 in 5.0 mi North 4.6 mph - N/A   Overcast
2:35 AM 42.8 °F 40.1 °F 42.8 °F 100% 30.11 in 6.0 mi NNE 4.6 mph - N/A   Overcast
2:55 AM 42.8 °F 39.3 °F 42.8 °F 100% 30.12 in 8.0 mi North 5.8 mph - N/A   Overcast
3:15 AM 42.8 °F 38.6 °F 42.8 °F 100% 30.11 in 7.0 mi North 6.9 mph - N/A   Overcast
3:35 AM 42.8 °F 41.1 °F 42.8 °F 100% 30.14 in 5.0 mi NW 3.5 mph - N/A   Overcast
3:55 AM 42.8 °F 40.1 °F 41.0 °F 93% 30.11 in 5.0 mi North 4.6 mph - N/A   Overcast
4:15 AM 42.8 °F 40.1 °F 41.0 °F 93% 30.10 in 10.0 mi NNE 4.6 mph - N/A   Overcast
4:35 AM 41.0 °F 38.0 °F 41.0 °F 100% 30.11 in 8.0 mi North 4.6 mph - N/A   Overcast
4:55 AM 41.0 °F 38.0 °F 41.0 °F 100% 30.13 in 7.0 mi North 4.6 mph - N/A   Overcast
5:15 AM 41.0 °F 38.0 °F 41.0 °F 100% 30.13 in 6.0 mi North 4.6 mph - N/A   Overcast
5:35 AM 41.0 °F 38.0 °F 41.0 °F 100% 30.13 in 5.0 mi North 4.6 mph - N/A   Overcast
5:55 AM 41.0 °F 38.0 °F 41.0 °F 100% 30.14 in 8.0 mi North 4.6 mph - N/A   Overcast
6:15 AM 41.0 °F 37.1 °F 41.0 °F 100% 30.15 in 9.0 mi North 5.8 mph - N/A   Overcast
6:35 AM 41.0 °F 35.8 °F 41.0 °F 100% 30.15 in 9.0 mi North 8.1 mph - N/A   Overcast
6:55 AM 41.0 °F 36.4 °F 39.2 °F 93% 30.16 in 10.0 mi North 6.9 mph - N/A   Overcast
7:15 AM 41.0 °F 36.4 °F 39.2 °F 93% 30.17 in 10.0 mi North 6.9 mph - N/A   Overcast
7:35 AM 41.0 °F 36.4 °F 39.2 °F 93% 30.17 in 10.0 mi North 6.9 mph - N/A   Overcast
7:55 AM 41.0 °F 36.4 °F 39.2 °F 93% 30.19 in 10.0 mi North 6.9 mph - N/A   Overcast
8:15 AM 42.8 °F 37.5 °F 39.2 °F 87% 30.20 in 10.0 mi North 9.2 mph - N/A   Overcast
8:35 AM 42.8 °F 38.6 °F 39.2 °F 87% 30.20 in 10.0 mi North 6.9 mph - N/A   Overcast
8:55 AM 42.8 °F 36.6 °F 39.2 °F 87% 30.20 in 10.0 mi North 11.5 mph - N/A   Scattered Clouds
9:15 AM 44.6 °F 38.4 °F 37.4 °F 76% 30.20 in 10.0 mi North 12.7 mph - N/A   Clear
9:35 AM 44.6 °F 37.8 °F 37.4 °F 76% 30.21 in 10.0 mi NNE 15.0 mph - N/A   Clear
9:55 AM 44.6 °F 39.2 °F 37.4 °F 76% 30.21 in 10.0 mi NNE 10.4 mph - N/A   Clear
10:15 AM 46.4 °F 40.7 °F 37.4 °F 71% 30.21 in 10.0 mi North 12.7 mph - N/A   Clear
10:35 AM 48.2 °F - 37.4 °F 66% 30.22 in 10.0 mi North 8.1 mph - N/A   Partly Cloudy
10:55 AM 46.4 °F 41.1 °F 37.4 °F 71% 30.23 in 10.0 mi North 11.5 mph - N/A   Mostly Cloudy
11:15 AM 46.4 °F 41.1 °F 37.4 °F 71% 30.24 in 10.0 mi NNW 11.5 mph - N/A   Overcast
11:35 AM 46.4 °F 40.7 °F 37.4 °F 71% 30.23 in 10.0 mi NNE 12.7 mph - N/A   Mostly Cloudy
11:55 AM 48.2 °F - 37.4 °F 66% 30.23 in 10.0 mi North 9.2 mph - N/A   Partly Cloudy
12:15 PM 48.2 °F - 37.4 °F 66% 30.22 in 10.0 mi North 11.5 mph - N/A   Partly Cloudy
12:35 PM 48.2 °F - 37.4 °F 66% 30.22 in 10.0 mi Variable 6.9 mph - N/A   Partly Cloudy
12:55 PM 50.0 °F - 37.4 °F 62% 30.22 in 10.0 mi North 8.1 mph - N/A   Clear
1:15 PM 51.8 °F - 37.4 °F 58% 30.21 in 10.0 mi NNW 10.4 mph - N/A   Clear
1:35 PM 51.8 °F - 37.4 °F 58% 30.21 in 10.0 mi North 10.4 mph - N/A   Clear
1:55 PM 51.8 °F - 35.6 °F 54% 30.20 in 10.0 mi North 12.7 mph - N/A   Clear
2:15 PM 51.8 °F - 35.6 °F 54% 30.20 in 10.0 mi North 12.7 mph - N/A   Clear
2:35 PM 53.6 °F - 37.4 °F 54% 30.20 in 10.0 mi North 12.7 mph - N/A   Clear
2:55 PM 51.8 °F - 35.6 °F 54% 30.19 in 10.0 mi NNW 8.1 mph - N/A   Clear
3:15 PM 53.6 °F - 35.6 °F 51% 30.19 in 10.0 mi NW 11.5 mph - N/A   Clear
3:35 PM 51.8 °F - 33.8 °F 50% 30.19 in 10.0 mi North 9.2 mph - N/A   Clear
3:55 PM 53.6 °F - 35.6 °F 51% 30.19 in 10.0 mi North 10.4 mph - N/A   Clear
4:15 PM 53.6 °F - 35.6 °F 51% 30.19 in 10.0 mi NNW 9.2 mph - N/A   Clear
4:35 PM 51.8 °F - 33.8 °F 50% 30.19 in 10.0 mi North 9.2 mph - N/A   Clear
4:55 PM 51.8 °F - 33.8 °F 50% 30.19 in - North 11.5 mph - N/A   Unknown
5:15 PM 51.8 °F - 32.0 °F 47% 30.19 in 10.0 mi North 12.7 mph - N/A   Clear
5:35 PM 51.8 °F - 30.2 °F 44% 30.20 in 10.0 mi North 11.5 mph - N/A   Clear
5:55 PM 51.8 °F - 30.2 °F 44% 30.20 in 10.0 mi North 12.7 mph - N/A   Clear
6:15 PM 50.0 °F - 30.2 °F 47% 30.20 in 10.0 mi North 10.4 mph - N/A   Clear
6:35 PM 48.2 °F - 30.2 °F 50% 30.20 in 10.0 mi North 9.2 mph - N/A   Clear
6:55 PM 46.4 °F 41.9 °F 30.2 °F 53% 30.21 in 10.0 mi North 9.2 mph - N/A   Clear
7:15 PM 46.4 °F 43.5 °F 30.2 °F 53% 30.22 in 10.0 mi North 5.8 mph - N/A   Clear
7:35 PM 44.6 °F 41.4 °F 30.2 °F 57% 30.22 in 10.0 mi North 5.8 mph - N/A   Clear
7:55 PM 44.6 °F 41.4 °F 30.2 °F 57% 30.23 in 10.0 mi North 5.8 mph - N/A   Clear
8:15 PM 44.6 °F 41.4 °F 30.2 °F 57% 30.24 in 10.0 mi North 5.8 mph - N/A   Clear
8:35 PM 42.8 °F 39.3 °F 30.2 °F 61% 30.25 in 10.0 mi North 5.8 mph - N/A   Clear
8:55 PM 42.8 °F 40.1 °F 30.2 °F 61% 30.26 in 10.0 mi North 4.6 mph - N/A   Clear
9:15 PM 42.8 °F 40.1 °F 28.4 °F 57% 30.26 in 10.0 mi North 4.6 mph - N/A   Clear
9:35 PM 41.0 °F 35.2 °F 28.4 °F 61% 30.27 in 10.0 mi North 9.2 mph - N/A   Clear
9:55 PM 39.2 °F 35.9 °F 28.4 °F 65% 30.27 in 10.0 mi North 4.6 mph - N/A   Clear
10:15 PM 39.2 °F 35.0 °F 26.6 °F 61% 30.27 in 10.0 mi North 5.8 mph - N/A   Clear
10:35 PM 39.2 °F 35.9 °F 26.6 °F 61% 30.28 in 10.0 mi North 4.6 mph - N/A   Clear
10:55 PM 37.4 °F 33.8 °F 26.6 °F 65% 30.27 in 10.0 mi North 4.6 mph - N/A   Clear
11:15 PM 37.4 °F 34.9 °F 26.6 °F 65% 30.27 in 10.0 mi North 3.5 mph - N/A   Clear
11:35 PM 37.4 °F 34.9 °F 26.6 °F 65% 30.27 in 10.0 mi North 3.5 mph - N/A   Clear
11:55 PM 37.4 °F 33.8 °F 26.6 °F 65% 30.27 in 10.0 mi North 4.6 mph - N/A   Clear